createdAt,value
2022-11-01T00:02:00.214Z,11.70
2022-11-01T00:04:28.251Z,11.70
2022-11-01T00:06:56.182Z,11.70
2022-11-01T00:09:25.423Z,11.70
2022-11-01T00:11:53.698Z,11.70
2022-11-01T00:14:21.953Z,11.70
2022-11-01T00:16:50.348Z,11.70
2022-11-01T00:19:18.477Z,11.70
2022-11-01T00:21:46.595Z,11.70
2022-11-01T00:24:14.612Z,11.80
2022-11-01T00:26:43.973Z,11.70
2022-11-01T00:29:13.224Z,11.70
2022-11-01T00:31:41.208Z,11.70
2022-11-01T00:34:09.384Z,11.70
2022-11-01T00:36:37.903Z,11.70
2022-11-01T00:39:07.065Z,11.70
2022-11-01T00:41:35.095Z,11.70
2022-11-01T00:44:04.681Z,11.70
2022-11-01T00:46:32.973Z,11.70
2022-11-01T00:49:01.166Z,11.70
2022-11-01T00:51:29.426Z,11.70
2022-11-01T00:53:57.440Z,11.70
2022-11-01T00:56:25.383Z,11.70
2022-11-01T00:58:53.313Z,11.70
2022-11-01T01:01:22.716Z,11.70
2022-11-01T01:03:50.760Z,11.70
2022-11-01T01:06:18.702Z,11.70
2022-11-01T01:08:46.629Z,11.70
2022-11-01T01:11:14.611Z,11.70
2022-11-01T01:13:42.666Z,11.70
2022-11-01T01:16:11.864Z,11.70
2022-11-01T01:18:41.410Z,11.70
2022-11-01T01:21:09.772Z,11.70
2022-11-01T01:23:37.841Z,11.60
2022-11-01T01:26:09.433Z,11.70
2022-11-01T01:28:41.903Z,11.70
2022-11-01T01:31:13.846Z,11.70
2022-11-01T01:33:43.163Z,11.70
2022-11-01T01:36:11.601Z,11.70
2022-11-01T01:38:39.626Z,11.70
2022-11-01T01:41:24.981Z,11.70
2022-11-01T01:43:52.946Z,11.70
2022-11-01T01:46:20.938Z,11.70
2022-11-01T01:48:54.571Z,11.70
2022-11-01T01:51:25.979Z,11.70
2022-11-01T01:53:56.185Z,11.60
2022-11-01T01:56:30.580Z,11.70
2022-11-01T01:59:03.558Z,11.70
2022-11-01T02:01:32.726Z,11.70
2022-11-01T02:04:03.509Z,11.70
2022-11-01T02:06:34.359Z,11.70
2022-11-01T02:09:04.960Z,11.70
2022-11-01T02:11:33.133Z,11.70
2022-11-01T02:14:01.681Z,11.60
2022-11-01T02:16:45.806Z,11.70
2022-11-01T02:19:46.827Z,11.70
2022-11-01T02:22:19.942Z,11.60
2022-11-01T02:25:11.061Z,11.70
2022-11-01T02:28:02.281Z,11.70
2022-11-01T02:30:39.560Z,11.70
2022-11-01T02:33:22.347Z,11.70
2022-11-01T02:35:59.987Z,11.70
2022-11-01T02:38:30.538Z,11.70
2022-11-01T02:41:09.839Z,11.70
2022-11-01T02:43:44.697Z,11.70
2022-11-01T02:46:41.939Z,11.60
2022-11-01T02:49:13.910Z,11.70
2022-11-01T02:51:43.105Z,11.70
2022-11-01T02:54:20.681Z,11.70
2022-11-01T02:56:48.978Z,11.70
2022-11-01T02:59:24.906Z,11.70
2022-11-01T03:01:58.785Z,11.80
2022-11-01T03:04:28.361Z,11.70
2022-11-01T03:06:59.414Z,11.70
2022-11-01T03:09:28.360Z,11.70
2022-11-01T03:12:01.064Z,11.70
2022-11-01T03:14:36.220Z,11.70
2022-11-01T03:17:12.010Z,11.80
2022-11-01T03:19:48.009Z,11.80
2022-11-01T03:22:19.421Z,11.80
2022-11-01T03:24:52.910Z,11.80
2022-11-01T03:27:27.254Z,11.80
2022-11-01T03:30:01.728Z,11.80
2022-11-01T03:32:33.588Z,11.80
2022-11-01T03:35:05.301Z,11.80
2022-11-01T03:37:34.657Z,11.70
2022-11-01T03:40:05.370Z,11.80
2022-11-01T03:42:34.375Z,11.90
2022-11-01T03:45:09.225Z,11.80
2022-11-01T03:47:37.462Z,11.80
2022-11-01T03:50:17.734Z,11.80
2022-11-01T03:52:46.540Z,11.80
2022-11-01T03:55:21.193Z,11.80
2022-11-01T03:57:50.049Z,11.80
2022-11-01T04:00:21.024Z,11.80
2022-11-01T04:02:49.450Z,11.80
2022-11-01T04:05:19.634Z,11.80
2022-11-01T04:07:47.979Z,11.80
2022-11-01T04:10:16.511Z,11.80
2022-11-01T04:12:46.500Z,11.80
2022-11-01T04:15:32.899Z,11.80
2022-11-01T04:18:22.890Z,11.80
2022-11-01T04:20:53.655Z,11.90
2022-11-01T04:23:21.662Z,11.80
2022-11-01T04:25:49.672Z,11.80
2022-11-01T04:28:17.787Z,11.80
2022-11-01T04:30:45.774Z,11.80
2022-11-01T04:33:13.786Z,11.80
2022-11-01T04:35:41.828Z,11.80
2022-11-01T04:38:15.162Z,11.70
2022-11-01T04:40:44.300Z,11.70
2022-11-01T04:43:13.007Z,11.70
2022-11-01T04:45:41.245Z,11.60
2022-11-01T04:48:12.706Z,11.70
2022-11-01T04:50:41.918Z,11.50
2022-11-01T04:53:12.878Z,11.50
2022-11-01T04:55:41.066Z,11.50
2022-11-01T04:58:10.811Z,11.50
2022-11-01T05:00:39.456Z,11.50
2022-11-01T05:03:09.060Z,11.40
2022-11-01T05:05:37.946Z,11.50
2022-11-01T05:08:07.822Z,11.40
2022-11-01T05:10:39.205Z,11.50
2022-11-01T05:13:07.421Z,11.40
2022-11-01T05:15:40.264Z,11.40
2022-11-01T05:18:12.219Z,11.40
2022-11-01T05:20:40.204Z,11.40
2022-11-01T05:23:08.116Z,11.30
2022-11-01T05:25:38.356Z,11.40
2022-11-01T05:28:08.612Z,11.40
2022-11-01T05:30:37.711Z,11.40
2022-11-01T05:33:07.558Z,11.30
2022-11-01T05:35:36.809Z,11.30
2022-11-01T05:38:05.879Z,11.30
2022-11-01T05:40:34.444Z,11.30
2022-11-01T05:43:04.182Z,11.20
2022-11-01T05:45:32.420Z,11.30
2022-11-01T05:48:03.721Z,11.30
2022-11-01T05:50:32.063Z,11.20
2022-11-01T05:53:08.823Z,11.20
2022-11-01T05:55:37.259Z,11.20
2022-11-01T05:58:07.102Z,11.20
2022-11-01T06:00:35.562Z,11.20
2022-11-01T06:03:04.272Z,11.20
2022-11-01T06:05:33.354Z,11.20
2022-11-01T06:08:02.828Z,11.20
2022-11-01T06:10:30.854Z,11.20
2022-11-01T06:12:59.098Z,11.20
2022-11-01T06:15:28.506Z,11.20
2022-11-01T06:17:58.142Z,11.20
2022-11-01T06:20:26.846Z,11.10
2022-11-01T06:22:54.807Z,11.10
2022-11-01T06:25:23.018Z,11.20
2022-11-01T06:27:51.045Z,11.20
2022-11-01T06:30:19.088Z,11.20
2022-11-01T06:32:48.424Z,11.10
2022-11-01T06:35:16.408Z,11.20
2022-11-01T06:37:44.362Z,11.20
2022-11-01T06:40:14.064Z,11.20
2022-11-01T06:42:46.362Z,11.20
2022-11-01T06:45:14.711Z,11.20
2022-11-01T06:47:48.781Z,11.20
2022-11-01T06:50:17.059Z,11.20
2022-11-01T06:52:45.010Z,11.20
2022-11-01T06:55:13.236Z,11.20
2022-11-01T06:57:41.346Z,11.30
2022-11-01T07:00:11.254Z,11.30
2022-11-01T07:02:39.334Z,11.30
2022-11-01T07:05:09.300Z,11.40
2022-11-01T07:07:37.261Z,11.40
2022-11-01T07:10:05.829Z,11.50
2022-11-01T07:12:33.739Z,11.40
2022-11-01T07:15:01.658Z,11.40
2022-11-01T07:17:29.634Z,11.40
2022-11-01T07:19:57.546Z,11.50
2022-11-01T07:22:26.911Z,11.50
2022-11-01T07:24:54.872Z,11.50
2022-11-01T07:27:22.829Z,11.40
2022-11-01T07:29:50.789Z,11.50
2022-11-01T07:32:18.705Z,11.50
2022-11-01T07:34:46.705Z,11.50
2022-11-01T07:37:14.727Z,11.60
2022-11-01T07:39:44.021Z,11.60
2022-11-01T07:42:11.935Z,11.60
2022-11-01T07:44:39.845Z,11.70
2022-11-01T07:47:07.773Z,11.70
2022-11-01T07:49:35.737Z,11.70
2022-11-01T07:52:04.251Z,11.80
2022-11-01T07:54:32.231Z,11.80
2022-11-01T07:57:01.536Z,11.80
2022-11-01T07:59:29.491Z,11.80
2022-11-01T08:01:57.587Z,11.80
2022-11-01T08:04:25.571Z,11.90
2022-11-01T08:06:53.605Z,11.90
2022-11-01T08:09:22.976Z,11.90
2022-11-01T08:11:50.958Z,12.00
2022-11-01T08:14:20.279Z,12.00
2022-11-01T08:16:49.655Z,12.10
2022-11-01T08:19:17.598Z,12.00
2022-11-01T08:21:45.605Z,12.00
2022-11-01T08:24:13.689Z,12.00
2022-11-01T08:26:41.599Z,12.10
2022-11-01T08:29:09.555Z,12.10
2022-11-01T08:31:42.039Z,12.10
2022-11-01T08:34:16.040Z,12.20
2022-11-01T08:36:44.970Z,12.20
2022-11-01T08:39:13.106Z,12.30
2022-11-01T08:41:41.053Z,12.30
2022-11-01T08:44:09.484Z,12.30
2022-11-01T08:46:37.446Z,12.30
2022-11-01T08:49:06.701Z,12.30
2022-11-01T08:51:34.610Z,12.30
2022-11-01T08:54:03.035Z,12.30
2022-11-01T08:56:30.934Z,12.20
2022-11-01T08:58:59.700Z,12.30
2022-11-01T09:01:27.805Z,12.30
2022-11-01T09:03:58.112Z,12.30
2022-11-01T09:06:32.334Z,12.30
2022-11-01T09:09:04.624Z,12.40
2022-11-01T09:11:32.549Z,12.40
2022-11-01T09:14:01.221Z,12.40
2022-11-01T09:16:29.425Z,12.40
2022-11-01T09:19:01.583Z,12.40
2022-11-01T09:21:31.975Z,12.40
2022-11-01T09:24:00.219Z,12.40
2022-11-01T09:26:29.300Z,12.40
2022-11-01T09:28:58.589Z,12.50
2022-11-01T09:31:26.825Z,12.50
2022-11-01T09:33:56.293Z,12.50
2022-11-01T09:36:24.666Z,12.50
2022-11-01T09:38:54.291Z,12.60
2022-11-01T09:41:31.919Z,12.50
2022-11-01T09:44:02.281Z,12.50
2022-11-01T09:46:33.675Z,12.50
2022-11-01T09:49:03.870Z,12.50
2022-11-01T09:51:32.034Z,12.50
2022-11-01T09:54:04.310Z,12.50
2022-11-01T09:56:41.226Z,12.60
2022-11-01T09:59:20.780Z,12.50
2022-11-01T10:01:58.980Z,12.60
2022-11-01T10:04:44.598Z,12.60
2022-11-01T10:07:19.438Z,12.60
2022-11-01T10:09:57.162Z,12.70
2022-11-01T10:12:38.396Z,12.80
2022-11-01T10:15:21.208Z,12.80
2022-11-01T10:17:52.738Z,12.90
2022-11-01T10:20:24.734Z,12.90
2022-11-01T10:22:52.659Z,12.90
2022-11-01T10:25:24.597Z,13.00
2022-11-01T10:28:00.356Z,13.00
2022-11-01T10:30:32.489Z,13.00
2022-11-01T10:33:04.451Z,13.00
2022-11-01T10:35:37.477Z,12.90
2022-11-01T10:38:24.992Z,12.90
2022-11-01T10:41:07.025Z,12.80
2022-11-01T10:43:39.414Z,12.80
2022-11-01T10:46:11.123Z,12.90
2022-11-01T10:48:44.173Z,13.10
2022-11-01T10:51:16.172Z,12.90
2022-11-01T10:53:47.894Z,13.00
2022-11-01T10:56:23.886Z,13.00
2022-11-01T10:59:00.571Z,13.00
2022-11-01T11:01:32.464Z,13.10
2022-11-01T11:04:03.830Z,13.20
2022-11-01T11:06:33.648Z,13.10
2022-11-01T11:09:02.966Z,13.20
2022-11-01T11:11:36.654Z,13.20
2022-11-01T11:14:08.558Z,13.30
2022-11-01T11:16:41.230Z,13.30
2022-11-01T11:19:19.591Z,13.40
2022-11-01T11:21:49.953Z,13.40
2022-11-01T11:24:20.868Z,13.40
2022-11-01T11:26:54.333Z,13.40
2022-11-01T11:29:45.230Z,13.50
2022-11-01T11:32:17.732Z,13.50
2022-11-01T11:34:52.422Z,13.50
2022-11-01T11:37:23.653Z,13.40
2022-11-01T11:40:20.775Z,13.40
2022-11-01T11:42:51.894Z,13.30
2022-11-01T11:45:28.425Z,13.30
2022-11-01T11:47:57.549Z,13.30
2022-11-01T11:50:32.206Z,13.20
2022-11-01T11:53:03.642Z,13.20
2022-11-01T11:55:40.375Z,13.20
2022-11-01T11:58:19.484Z,13.20
2022-11-01T12:00:50.125Z,13.20
2022-11-01T12:03:19.296Z,13.20
2022-11-01T12:05:59.834Z,13.20
2022-11-01T12:08:44.820Z,13.20
2022-11-01T12:11:13.946Z,13.10
2022-11-01T12:13:45.053Z,13.00
2022-11-01T12:16:25.359Z,13.00
2022-11-01T12:18:55.574Z,12.90
2022-11-01T12:21:27.464Z,12.90
2022-11-01T12:24:00.717Z,13.00
2022-11-01T12:26:31.798Z,13.00
2022-11-01T12:29:07.542Z,13.00
2022-11-01T12:31:36.341Z,13.00
2022-11-01T12:34:11.460Z,13.00
2022-11-01T12:36:45.874Z,12.90
2022-11-01T12:39:27.579Z,12.80
2022-11-01T12:41:59.442Z,12.80
2022-11-01T12:44:36.066Z,12.80
2022-11-01T12:47:16.680Z,12.80
2022-11-01T12:49:52.168Z,12.70
2022-11-01T12:52:26.944Z,12.70
2022-11-01T12:55:04.126Z,12.80
2022-11-01T12:57:33.191Z,12.80
2022-11-01T13:00:04.344Z,12.70
2022-11-01T13:03:03.078Z,12.70
2022-11-01T13:05:47.652Z,12.60
2022-11-01T13:08:26.051Z,12.60
2022-11-01T13:10:56.632Z,12.60
2022-11-01T13:13:31.430Z,12.60
2022-11-01T13:16:07.123Z,12.70
2022-11-01T13:18:45.532Z,12.60
2022-11-01T13:21:24.707Z,12.60
2022-11-01T13:23:59.704Z,12.60
2022-11-01T13:26:31.474Z,12.60
2022-11-01T13:31:57.471Z,12.50
2022-11-01T13:34:37.771Z,12.50
2022-11-01T13:37:12.663Z,12.40
2022-11-01T13:39:53.524Z,12.50
2022-11-01T13:42:25.454Z,12.40
2022-11-01T13:45:05.685Z,12.50
2022-11-01T13:47:54.533Z,12.40
2022-11-01T13:50:55.733Z,12.40
2022-11-01T13:53:31.216Z,12.40
2022-11-01T13:56:03.475Z,12.40
2022-11-01T13:58:32.768Z,12.40
2022-11-01T14:01:30.076Z,12.30
2022-11-01T14:04:49.206Z,12.30
2022-11-01T14:07:18.571Z,12.30
2022-11-01T14:09:48.975Z,12.20
2022-11-01T14:12:40.942Z,12.20
2022-11-01T14:15:22.437Z,12.20
2022-11-01T14:18:07.728Z,12.20
2022-11-01T14:20:41.536Z,12.10
2022-11-01T14:23:52.616Z,12.10
2022-11-01T14:26:48.011Z,12.10
2022-11-01T14:29:16.437Z,12.00
2022-11-01T14:31:47.708Z,12.00
2022-11-01T14:34:29.033Z,12.00
2022-11-01T14:37:01.401Z,12.00
2022-11-01T14:39:35.751Z,12.00
2022-11-01T14:42:07.909Z,12.00
2022-11-01T14:44:40.526Z,11.90
2022-11-01T14:47:23.611Z,11.90
2022-11-01T14:49:56.933Z,11.90
2022-11-01T14:52:32.123Z,11.90
2022-11-01T14:55:13.553Z,11.90
2022-11-01T14:57:45.323Z,11.90
2022-11-01T15:00:23.079Z,11.80
2022-11-01T15:02:51.554Z,11.90
2022-11-01T15:05:19.566Z,11.90
2022-11-01T15:07:51.614Z,11.80
2022-11-01T15:10:19.691Z,11.80
2022-11-01T15:12:52.625Z,11.80
2022-11-01T15:15:23.331Z,11.80
2022-11-01T15:17:54.234Z,11.90
2022-11-01T15:20:23.851Z,11.80
2022-11-01T15:22:55.420Z,11.80
2022-11-01T15:25:27.399Z,11.80
2022-11-01T15:27:58.197Z,11.70
2022-11-01T15:30:28.170Z,11.70
2022-11-01T15:33:14.894Z,11.70
2022-11-01T15:35:43.076Z,11.70
2022-11-01T15:38:20.735Z,11.70
2022-11-01T15:40:50.338Z,11.70
2022-11-01T15:43:21.303Z,11.70
2022-11-01T15:45:52.984Z,11.70
2022-11-01T15:48:25.774Z,11.70
2022-11-01T15:50:58.027Z,11.70
2022-11-01T15:53:29.847Z,11.70
2022-11-01T15:56:03.946Z,11.70
2022-11-01T15:58:37.974Z,11.70
2022-11-01T16:01:13.110Z,11.70
2022-11-01T16:03:44.873Z,11.70
2022-11-01T16:06:17.905Z,11.70
2022-11-01T16:08:50.008Z,11.70
2022-11-01T16:11:20.850Z,11.70
2022-11-01T16:13:51.832Z,11.70
2022-11-01T16:16:19.917Z,11.70
2022-11-01T16:18:48.396Z,11.60
2022-11-01T16:21:27.938Z,11.60
2022-11-01T16:24:04.153Z,11.70
2022-11-01T16:26:35.018Z,11.70
2022-11-01T16:29:04.634Z,11.70
2022-11-01T16:31:36.917Z,11.70
2022-11-01T16:34:19.803Z,11.60
2022-11-01T16:36:47.799Z,11.70
2022-11-01T16:39:31.004Z,11.60
2022-11-01T16:42:00.079Z,11.60
2022-11-01T16:44:29.623Z,11.70
2022-11-01T16:46:57.877Z,11.60
2022-11-01T16:49:27.798Z,11.60
2022-11-01T16:51:56.695Z,11.60
2022-11-01T16:54:25.237Z,11.70
2022-11-01T16:56:54.947Z,11.60
2022-11-01T16:59:36.885Z,11.60
2022-11-01T17:02:17.563Z,11.60
2022-11-01T17:04:46.490Z,11.60
2022-11-01T17:07:16.259Z,11.60
2022-11-01T17:09:44.733Z,11.60
2022-11-01T17:12:13.083Z,11.60
2022-11-01T17:14:43.064Z,11.60
2022-11-01T17:17:15.807Z,11.60
2022-11-01T17:19:47.589Z,11.50
2022-11-01T17:22:19.126Z,11.40
2022-11-01T17:24:47.348Z,11.50
2022-11-01T17:27:16.370Z,11.50
2022-11-01T17:29:45.690Z,11.60
2022-11-01T17:32:13.724Z,11.40
2022-11-01T17:34:41.822Z,11.40
2022-11-01T17:37:14.784Z,11.40
2022-11-01T17:39:42.838Z,11.40
2022-11-01T17:42:11.519Z,11.40
2022-11-01T17:44:39.522Z,11.40
2022-11-01T17:47:10.306Z,11.30
2022-11-01T17:49:39.637Z,11.30
2022-11-01T17:52:10.940Z,11.40
2022-11-01T17:54:39.192Z,11.30
2022-11-01T17:57:07.163Z,11.30
2022-11-01T17:59:35.751Z,11.30
2022-11-01T18:02:04.171Z,11.30
2022-11-01T18:04:35.699Z,11.30
2022-11-01T18:07:06.457Z,11.30
2022-11-01T18:09:37.409Z,11.30
2022-11-01T18:12:10.479Z,11.30
2022-11-01T18:14:50.706Z,11.30
2022-11-01T18:17:31.574Z,11.30
2022-11-01T18:20:08.513Z,11.30
2022-11-01T18:22:43.097Z,11.30
2022-11-01T18:25:27.125Z,11.30
2022-11-01T18:27:57.090Z,11.30
2022-11-01T18:30:25.832Z,11.20
2022-11-01T18:33:00.093Z,11.20
2022-11-01T18:35:34.020Z,11.30
2022-11-01T18:38:14.305Z,11.20
2022-11-01T18:40:51.490Z,11.20
2022-11-01T18:43:21.328Z,11.20
2022-11-01T18:46:18.738Z,11.20
2022-11-01T18:48:38.450Z,11.20
2022-11-01T18:51:14.888Z,11.20
2022-11-01T18:53:43.117Z,11.20
2022-11-01T18:56:21.207Z,11.20
2022-11-01T18:58:50.458Z,11.10
2022-11-01T19:01:20.327Z,11.20
2022-11-01T19:03:55.833Z,11.10
2022-11-01T19:06:27.297Z,11.10
2022-11-01T19:08:57.344Z,11.10
2022-11-01T19:11:27.809Z,11.10
2022-11-01T19:13:58.286Z,11.00
2022-11-01T19:16:26.951Z,11.00
2022-11-01T19:18:55.100Z,11.00
2022-11-01T19:21:25.343Z,11.00
2022-11-01T19:23:55.378Z,11.00
2022-11-01T19:26:26.148Z,11.00
2022-11-01T19:28:54.729Z,11.00
2022-11-01T19:31:27.464Z,10.90
2022-11-01T19:33:58.199Z,10.90
2022-11-01T19:39:20.507Z,10.90
2022-11-01T19:41:48.621Z,10.90
2022-11-01T19:44:20.895Z,10.90
2022-11-01T19:46:52.275Z,10.90
2022-11-01T19:49:24.744Z,10.90
2022-11-01T19:52:03.082Z,10.90
2022-11-01T19:54:36.283Z,10.90
2022-11-01T19:57:28.537Z,10.90
2022-11-01T20:00:06.896Z,10.90
2022-11-01T20:02:40.245Z,10.90
2022-11-01T20:05:27.375Z,10.90
2022-11-01T20:08:07.949Z,10.90
2022-11-01T20:10:36.215Z,10.90
2022-11-01T20:13:04.757Z,11.00
2022-11-01T20:15:33.149Z,11.00
2022-11-01T20:18:03.687Z,11.00
2022-11-01T20:20:32.884Z,11.00
2022-11-01T20:23:24.434Z,11.00
2022-11-01T20:25:50.946Z,11.00
2022-11-01T20:28:19.239Z,11.00
2022-11-01T20:30:47.425Z,11.00
2022-11-01T20:33:16.160Z,11.00
2022-11-01T20:35:44.346Z,11.00
2022-11-01T20:38:14.038Z,10.90
2022-11-01T20:40:42.316Z,11.00
2022-11-01T20:43:10.479Z,11.00
2022-11-01T20:45:38.647Z,11.00
2022-11-01T20:48:08.376Z,11.00
2022-11-01T20:50:36.770Z,11.00
2022-11-01T20:53:06.427Z,11.00
2022-11-01T20:55:36.030Z,11.00
2022-11-01T20:58:04.537Z,11.00
2022-11-01T21:00:32.646Z,11.00
2022-11-01T21:03:03.037Z,11.00
2022-11-01T21:05:34.715Z,11.00
2022-11-01T21:08:12.632Z,11.00
2022-11-01T21:10:43.629Z,11.00
2022-11-01T21:13:23.508Z,11.10
2022-11-01T21:15:52.547Z,11.00
2022-11-01T21:18:41.733Z,11.00
2022-11-01T21:21:35.437Z,11.00
2022-11-01T21:24:26.577Z,10.90
2022-11-01T21:27:14.505Z,11.00
2022-11-01T21:29:45.650Z,11.10
2022-11-01T21:32:34.692Z,11.10
2022-11-01T21:35:34.562Z,11.00
2022-11-01T21:38:03.213Z,11.10
2022-11-01T21:40:31.502Z,11.10
2022-11-01T21:43:01.284Z,11.10
2022-11-01T21:45:31.029Z,11.10
2022-11-01T21:48:02.246Z,11.10
2022-11-01T21:50:30.568Z,11.10
2022-11-01T21:52:58.475Z,11.10
2022-11-01T21:55:26.430Z,11.10
2022-11-01T21:57:54.339Z,11.10
2022-11-01T22:00:23.667Z,11.00
2022-11-01T22:02:51.594Z,11.10
2022-11-01T22:05:19.568Z,11.00
2022-11-01T22:07:47.831Z,11.00
2022-11-01T22:10:15.840Z,11.10
2022-11-01T22:12:43.808Z,11.00
2022-11-01T22:15:12.184Z,11.00
2022-11-01T22:17:41.890Z,11.00
2022-11-01T22:20:10.518Z,11.00
2022-11-01T22:22:38.423Z,11.00
2022-11-01T22:25:07.396Z,11.00
2022-11-01T22:27:35.428Z,11.00
2022-11-01T22:30:03.646Z,11.00
2022-11-01T22:32:31.581Z,11.00
2022-11-01T22:35:00.934Z,11.00
2022-11-01T22:37:36.029Z,10.90
2022-11-01T22:40:12.422Z,10.90
2022-11-01T22:42:41.400Z,10.80
2022-11-01T22:45:15.737Z,10.70
2022-11-01T22:47:44.042Z,10.70
2022-11-01T22:50:15.577Z,10.70
2022-11-01T22:52:45.015Z,10.60
2022-11-01T22:55:23.015Z,10.60
2022-11-01T22:57:54.306Z,10.60
2022-11-01T23:00:33.503Z,10.50
2022-11-01T23:03:09.931Z,10.50
2022-11-01T23:05:39.591Z,10.50
2022-11-01T23:08:20.299Z,10.50
2022-11-01T23:10:50.783Z,10.50
2022-11-01T23:13:42.589Z,10.50
2022-11-01T23:16:23.654Z,10.60
2022-11-01T23:18:52.543Z,10.50
2022-11-01T23:21:22.860Z,10.50
2022-11-01T23:23:51.157Z,10.50
2022-11-01T23:26:20.563Z,10.50
2022-11-01T23:28:50.506Z,10.50
2022-11-01T23:31:19.193Z,10.50
2022-11-01T23:33:51.773Z,10.50
2022-11-01T23:36:25.875Z,10.50
2022-11-01T23:38:56.853Z,10.50
2022-11-01T23:41:27.795Z,10.50
2022-11-01T23:43:57.885Z,10.50
2022-11-01T23:46:26.849Z,10.50
2022-11-01T23:49:00.457Z,10.50
2022-11-01T23:51:31.214Z,10.50
2022-11-01T23:53:59.936Z,10.50
2022-11-01T23:56:27.984Z,10.50
2022-11-01T23:59:02.782Z,10.50
